Time;durP1;ratioP1;P1;durP2;ratioP2;P2;SDS_P1;SDS_P2;PMS_P1;PMS_P2;Temp;Humidity;BMP_temperature;BMP_pressure;BME280_temperature;BME280_humidity;BME280_pressure;Samples;Min_cycle;Max_cycle;Signal;HPM_P1;HPM_P2
2021/10/02 00:31:25;;;;;;;5.18;4.70;;;14.80;99.90;;;;;;5089412;28;20243;-76
2021/10/02 00:34:12;;;;;;;6.75;4.90;;;14.80;99.90;;;;;;5083886;28;20209;-84
2021/10/02 00:36:55;;;;;;;6.38;5.28;;;14.80;99.90;;;;;;5090602;28;20259;-78
2021/10/02 00:44:55;;;;;;;5.97;4.82;;;14.60;99.90;;;;;;5090667;28;20205;-77
2021/10/02 00:47:24;;;;;;;6.57;4.45;;;14.60;99.90;;;;;;5090941;28;20209;-77
2021/10/02 00:49:54;;;;;;;4.22;3.80;;;14.60;99.90;;;;;;5090286;28;20622;-77
2021/10/02 00:52:21;;;;;;;5.40;3.83;;;14.60;99.90;;;;;;5090882;28;20198;-78
2021/10/02 00:54:49;;;;;;;6.90;3.92;;;14.60;99.90;;;;;;5090154;28;20229;-77
2021/10/02 00:57:17;;;;;;;6.25;3.70;;;14.60;99.90;;;;;;5090757;28;20255;-78
2021/10/02 00:59:47;;;;;;;4.88;3.67;;;14.60;99.90;;;;;;5089745;28;20240;-79
2021/10/02 01:02:26;;;;;;;4.32;3.50;;;14.60;99.90;;;;;;5090616;28;20960;-77
2021/10/02 01:05:16;;;;;;;4.82;3.85;;;14.50;99.90;;;;;;5090547;28;20246;-77
2021/10/02 01:07:54;;;;;;;4.28;3.28;;;14.40;99.90;;;;;;5088422;28;20263;-77
2021/10/02 01:10:30;;;;;;;5.05;3.58;;;14.40;99.90;;;;;;5090527;28;20672;-76
2021/10/02 01:13:07;;;;;;;5.53;4.07;;;14.30;99.90;;;;;;5090734;28;20205;-78
2021/10/02 01:15:42;;;;;;;7.57;4.35;;;14.30;99.90;;;;;;5089611;28;20225;-78
2021/10/02 01:18:16;;;;;;;4.95;3.90;;;14.30;99.90;;;;;;5090698;28;20266;-78
2021/10/02 01:20:56;;;;;;;5.32;4.45;;;14.30;99.90;;;;;;5089872;28;20213;-80
2021/10/02 01:23:37;;;;;;;6.55;3.50;;;14.30;99.90;;;;;;5090658;28;20676;-79
2021/10/02 01:26:19;;;;;;;6.65;3.17;;;14.30;99.90;;;;;;5085750;28;20198;-79
2021/10/02 01:28:53;;;;;;;4.28;3.10;;;14.40;99.90;;;;;;5089816;28;20709;-79
2021/10/02 01:31:24;;;;;;;4.38;3.70;;;14.40;99.90;;;;;;5090847;28;20209;-79
2021/10/02 01:33:58;;;;;;;4.32;3.35;;;14.40;99.90;;;;;;5090662;28;20647;-79
2021/10/02 01:36:45;;;;;;;6.93;3.20;;;14.40;99.90;;;;;;5091695;28;20224;-79
2021/10/02 01:47:38;;;;;;;4.75;3.63;;;14.20;99.90;;;;;;5093755;28;20213;-76
2021/10/02 01:50:07;;;;;;;3.50;2.83;;;14.20;99.90;;;;;;5093688;28;20228;-74
2021/10/02 01:52:38;;;;;;;4.43;3.17;;;14.20;99.90;;;;;;5093482;28;20263;-75
2021/10/02 01:55:08;;;;;;;2.95;2.63;;;14.20;99.90;;;;;;5093538;28;20217;-75
2021/10/02 01:57:40;;;;;;;4.20;2.88;;;14.30;99.90;;;;;;5093238;28;20266;-76
2021/10/02 02:00:11;;;;;;;5.60;3.38;;;14.30;99.90;;;;;;5093490;28;20547;-77
2021/10/02 02:02:40;;;;;;;5.95;3.17;;;14.30;99.90;;;;;;5093445;28;20742;-79
2021/10/02 02:05:09;;;;;;;3.60;2.95;;;14.40;99.90;;;;;;5093758;28;20209;-77
2021/10/02 02:07:38;;;;;;;4.13;3.28;;;14.50;99.90;;;;;;5093273;28;20201;-77
2021/10/02 02:10:08;;;;;;;2.95;2.75;;;14.50;99.90;;;;;;5093318;28;20673;-76
2021/10/02 02:12:35;;;;;;;3.92;3.60;;;14.50;99.90;;;;;;5092890;28;20213;-77
2021/10/02 02:15:06;;;;;;;3.33;2.88;;;14.50;99.90;;;;;;5093365;28;20206;-76
2021/10/02 02:17:37;;;;;;;7.18;3.25;;;14.40;99.90;;;;;;5093304;28;20210;-76
2021/10/02 02:20:06;;;;;;;3.05;2.67;;;14.30;99.90;;;;;;5093162;28;20618;-76
2021/10/02 02:22:33;;;;;;;4.68;3.22;;;14.20;99.90;;;;;;5093109;28;20618;-76
2021/10/02 02:25:00;;;;;;;5.35;2.72;;;14.20;99.90;;;;;;5093155;28;20585;-75
2021/10/02 02:27:29;;;;;;;4.55;3.17;;;14.10;99.90;;;;;;5092402;28;20271;-75
2021/10/02 02:29:57;;;;;;;4.70;3.13;;;14.10;99.90;;;;;;5093337;28;20201;-77
2021/10/02 02:32:24;;;;;;;2.75;2.55;;;14.10;99.90;;;;;;5093564;28;20262;-75
2021/10/02 02:34:54;;;;;;;3.83;3.15;;;14.00;99.90;;;;;;5093602;28;20205;-75
2021/10/02 02:37:21;;;;;;;4.57;3.30;;;14.00;99.90;;;;;;5093540;28;20201;-74
2021/10/02 02:39:48;;;;;;;5.05;3.28;;;14.00;99.90;;;;;;5082929;28;20278;-74
2021/10/02 02:42:16;;;;;;;4.32;3.80;;;13.90;99.90;;;;;;5072331;28;20259;-75
2021/10/02 02:44:43;;;;;;;3.55;2.75;;;13.90;99.90;;;;;;5072108;28;20657;-75
2021/10/02 02:47:15;;;;;;;5.00;2.83;;;13.80;99.90;;;;;;5072300;28;20214;-74
2021/10/02 02:49:47;;;;;;;4.50;2.90;;;13.80;99.90;;;;;;5072077;28;20736;-76
2021/10/02 02:52:21;;;;;;;5.68;2.92;;;13.80;99.90;;;;;;5072683;28;20214;-75
2021/10/02 02:54:54;;;;;;;3.33;2.78;;;13.90;99.90;;;;;;5071886;28;20746;-74
2021/10/02 02:57:27;;;;;;;3.97;3.33;;;13.80;99.90;;;;;;5072696;28;20238;-74
2021/10/02 03:00:03;;;;;;;3.30;2.60;;;13.80;99.90;;;;;;5072818;28;20263;-74
2021/10/02 03:02:33;;;;;;;4.95;2.38;;;13.80;99.90;;;;;;5072278;28;20208;-74
2021/10/02 03:05:02;;;;;;;7.05;4.32;;;13.80;99.90;;;;;;5072005;28;20206;-74
2021/10/02 03:07:33;;;;;;;2.75;2.42;;;13.80;99.90;;;;;;5072115;28;20272;-76
2021/10/02 03:10:02;;;;;;;4.25;2.42;;;13.80;99.90;;;;;;5071940;28;20271;-79
2021/10/02 03:12:34;;;;;;;2.90;2.65;;;13.70;99.90;;;;;;5071988;28;20198;-75
2021/10/02 03:15:02;;;;;;;3.40;2.75;;;13.70;99.90;;;;;;5071951;28;20252;-75
2021/10/02 03:17:30;;;;;;;3.65;2.47;;;13.70;99.90;;;;;;5071308;28;20206;-75
2021/10/02 03:20:00;;;;;;;4.63;3.00;;;13.70;99.90;;;;;;5072273;28;20252;-74
2021/10/02 03:22:30;;;;;;;4.72;2.88;;;13.70;99.90;;;;;;5071354;28;20665;-74
2021/10/02 03:24:59;;;;;;;2.88;2.38;;;13.70;99.90;;;;;;5072325;28;20626;-75
2021/10/02 03:27:28;;;;;;;4.72;3.40;;;13.70;99.90;;;;;;5071846;28;20210;-74
2021/10/02 03:29:57;;;;;;;3.55;2.75;;;13.70;99.90;;;;;;5071652;28;20272;-73
2021/10/02 03:32:26;;;;;;;3.97;2.85;;;13.70;99.90;;;;;;5071965;28;20210;-73
2021/10/02 03:34:53;;;;;;;4.30;2.65;;;13.60;99.90;;;;;;5071995;28;20631;-74
2021/10/02 03:37:21;;;;;;;3.85;2.95;;;13.60;99.90;;;;;;5071977;28;20303;-74
2021/10/02 03:39:49;;;;;;;3.40;2.70;;;13.60;99.90;;;;;;5071275;28;20205;-74
2021/10/02 03:42:18;;;;;;;5.45;4.38;;;13.60;99.90;;;;;;5071212;28;20217;-75
2021/10/02 03:44:47;;;;;;;3.97;3.08;;;13.60;99.90;;;;;;5070827;28;20259;-75
2021/10/02 03:47:16;;;;;;;3.53;2.50;;;13.50;99.90;;;;;;5071915;28;20213;-74
2021/10/02 03:49:44;;;;;;;3.63;2.40;;;13.50;99.90;;;;;;5070955;28;20623;-75
2021/10/02 03:52:12;;;;;;;3.50;2.15;;;13.40;99.90;;;;;;5071554;28;20214;-76
2021/10/02 03:54:40;;;;;;;4.57;2.95;;;13.40;99.90;;;;;;5070496;28;20665;-75
2021/10/02 03:57:09;;;;;;;3.97;3.00;;;13.40;99.90;;;;;;5071271;28;20287;-75
2021/10/02 03:59:36;;;;;;;4.68;3.17;;;13.40;99.90;;;;;;5070046;28;20264;-75
2021/10/02 04:02:03;;;;;;;4.78;3.58;;;13.30;99.90;;;;;;5071274;28;20693;-75
2021/10/02 04:04:30;;;;;;;3.13;2.50;;;13.30;99.90;;;;;;5071003;28;20206;-74
2021/10/02 04:06:57;;;;;;;4.53;2.85;;;13.40;99.90;;;;;;5070821;28;20206;-74
2021/10/02 04:09:26;;;;;;;6.90;3.47;;;13.40;99.90;;;;;;5070951;28;20267;-75
2021/10/02 04:11:53;;;;;;;3.22;2.28;;;13.40;99.90;;;;;;5071369;28;20256;-73
2021/10/02 04:14:21;;;;;;;4.38;2.33;;;13.40;99.90;;;;;;5071398;28;20670;-73
2021/10/02 04:16:48;;;;;;;3.45;2.72;;;13.30;99.90;;;;;;5070530;28;20238;-74
2021/10/02 04:19:16;;;;;;;3.72;2.72;;;13.30;99.90;;;;;;5071095;28;20256;-73
2021/10/02 04:21:43;;;;;;;3.42;3.13;;;13.30;99.90;;;;;;5070207;28;20268;-73
2021/10/02 04:24:11;;;;;;;3.63;3.33;;;13.40;99.90;;;;;;5070440;28;20674;-72
2021/10/02 04:26:38;;;;;;;3.28;2.80;;;13.40;99.90;;;;;;5070367;28;20214;-72
2021/10/02 04:29:05;;;;;;;3.20;1.90;;;13.40;99.90;;;;;;5070748;28;20205;-73
2021/10/02 04:31:33;;;;;;;3.95;2.75;;;13.40;99.90;;;;;;5070460;28;20206;-72
2021/10/02 04:34:01;;;;;;;2.58;2.38;;;13.40;99.90;;;;;;5070622;28;20210;-72
2021/10/02 04:36:27;;;;;;;4.22;3.60;;;13.40;99.90;;;;;;5069945;28;20713;-74
2021/10/02 04:38:55;;;;;;;2.72;2.33;;;13.30;99.90;;;;;;5070343;28;20636;-74
2021/10/02 04:41:22;;;;;;;5.43;3.15;;;13.30;99.90;;;;;;5070832;28;20206;-75
2021/10/02 04:43:49;;;;;;;6.53;3.05;;;13.20;99.90;;;;;;5070068;28;20259;-74
2021/10/02 04:46:17;;;;;;;5.57;2.17;;;13.20;99.90;;;;;;5070500;28;20559;-74
2021/10/02 04:48:46;;;;;;;5.13;2.72;;;13.20;99.90;;;;;;5070107;28;20614;-74
2021/10/02 04:51:13;;;;;;;9.70;3.10;;;13.20;99.90;;;;;;5069890;28;20668;-74
2021/10/02 04:53:40;;;;;;;3.35;3.03;;;13.10;99.90;;;;;;5070488;28;20247;-74
2021/10/02 04:56:10;;;;;;;3.92;2.55;;;13.10;99.90;;;;;;5070581;28;20226;-73
2021/10/02 04:58:37;;;;;;;4.63;2.78;;;13.20;99.90;;;;;;5056260;28;20209;-73
2021/10/02 05:01:06;;;;;;;4.88;3.35;;;13.10;99.90;;;;;;5070345;28;20678;-73
2021/10/02 05:03:33;;;;;;;6.05;2.35;;;13.10;99.90;;;;;;5069815;28;20224;-73
2021/10/02 05:06:03;;;;;;;3.83;2.53;;;13.10;99.90;;;;;;5070140;28;20210;-73
2021/10/02 05:08:30;;;;;;;5.80;3.58;;;13.10;99.90;;;;;;5069927;28;20241;-73
2021/10/02 05:10:58;;;;;;;3.03;2.67;;;13.10;99.90;;;;;;5071530;28;20267;-74
2021/10/02 05:13:25;;;;;;;3.55;2.50;;;13.00;99.90;;;;;;5074234;28;20673;-72
2021/10/02 05:15:52;;;;;;;3.67;2.60;;;13.20;99.90;;;;;;5074716;28;20247;-73
2021/10/02 05:18:19;;;;;;;2.65;2.40;;;13.20;99.90;;;;;;5074257;28;20206;-73
2021/10/02 05:20:46;;;;;;;3.20;1.92;;;13.20;99.90;;;;;;5073911;28;21108;-73
2021/10/02 05:23:14;;;;;;;4.13;2.45;;;13.30;99.90;;;;;;5074579;28;20202;-73
2021/10/02 05:25:41;;;;;;;4.50;2.10;;;13.20;99.90;;;;;;5073832;28;20202;-75
2021/10/02 05:28:08;;;;;;;7.88;2.40;;;13.30;99.90;;;;;;5074769;28;20275;-76
2021/10/02 05:30:35;;;;;;;4.68;2.15;;;13.30;99.90;;;;;;5073598;28;20260;-76
2021/10/02 05:33:03;;;;;;;2.95;2.05;;;13.40;99.90;;;;;;5074235;28;20211;-75
2021/10/02 05:35:31;;;;;;;4.68;2.30;;;13.30;99.90;;;;;;5073379;28;20208;-75
2021/10/02 05:37:58;;;;;;;3.88;2.72;;;13.10;99.90;;;;;;5073967;28;20354;-76
2021/10/02 05:40:26;;;;;;;4.45;2.60;;;13.10;99.90;;;;;;5073428;28;20218;-74
2021/10/02 05:42:54;;;;;;;6.75;2.28;;;13.10;99.90;;;;;;5073981;28;20625;-74
2021/10/02 05:45:21;;;;;;;3.35;2.00;;;13.10;99.90;;;;;;5070058;28;20198;-74
2021/10/02 05:47:48;;;;;;;5.15;2.90;;;13.10;99.90;;;;;;5072975;28;20628;-74
2021/10/02 05:50:14;;;;;;;2.65;2.10;;;13.20;99.90;;;;;;5073905;28;20210;-74
2021/10/02 05:52:41;;;;;;;2.58;2.10;;;13.20;99.90;;;;;;5073648;28;20210;-77
2021/10/02 05:55:10;;;;;;;6.10;3.40;;;13.20;99.90;;;;;;5073301;28;20210;-74
2021/10/02 05:57:38;;;;;;;3.15;2.83;;;13.20;99.90;;;;;;5072989;28;20235;-74
2021/10/02 06:00:08;;;;;;;2.92;2.50;;;13.10;99.90;;;;;;5073211;28;20202;-73
2021/10/02 06:02:35;;;;;;;2.90;2.17;;;13.10;99.90;;;;;;5073444;28;20232;-74
2021/10/02 06:05:02;;;;;;;3.42;2.55;;;13.10;99.90;;;;;;5073061;28;20202;-75
2021/10/02 06:07:29;;;;;;;5.50;2.92;;;13.20;99.90;;;;;;5073158;28;20205;-80
2021/10/02 06:09:56;;;;;;;6.40;2.00;;;13.20;99.90;;;;;;5073085;28;20210;-74
2021/10/02 06:12:23;;;;;;;2.53;1.90;;;13.30;99.90;;;;;;5073645;28;20257;-75
2021/10/02 06:14:51;;;;;;;3.80;2.47;;;13.30;99.90;;;;;;5069364;28;20759;-75
2021/10/02 06:17:18;;;;;;;6.03;2.28;;;13.40;99.90;;;;;;5062574;28;20234;-76
2021/10/02 06:19:45;;;;;;;4.20;3.17;;;13.40;99.90;;;;;;5072799;28;20259;-78
2021/10/02 06:22:12;;;;;;;2.10;1.88;;;13.40;99.90;;;;;;5059766;28;20209;-77
2021/10/02 06:24:39;;;;;;;3.38;2.30;;;13.50;99.90;;;;;;5072344;28;20206;-75
2021/10/02 06:27:06;;;;;;;4.90;2.45;;;13.50;99.90;;;;;;5072375;28;20263;-76
2021/10/02 06:29:33;;;;;;;2.67;2.35;;;13.50;99.90;;;;;;5072132;28;20198;-77
2021/10/02 06:32:02;;;;;;;4.57;2.55;;;13.50;99.90;;;;;;5072535;28;20206;-75
2021/10/02 06:34:29;;;;;;;4.07;2.50;;;13.60;99.90;;;;;;5072177;28;20252;-75
2021/10/02 06:36:56;;;;;;;4.18;2.75;;;13.50;99.90;;;;;;5072545;28;20725;-75
2021/10/02 06:39:23;;;;;;;4.53;1.70;;;13.50;99.90;;;;;;5072722;28;20670;-76
2021/10/02 06:41:50;;;;;;;2.80;2.45;;;13.50;99.90;;;;;;5072507;28;20677;-77
2021/10/02 06:44:17;;;;;;;3.28;1.98;;;13.60;99.90;;;;;;5072709;28;20259;-78
2021/10/02 06:46:43;;;;;;;2.55;2.30;;;13.70;99.90;;;;;;5072267;28;20622;-83
2021/10/02 06:49:12;;;;;;;6.15;2.35;;;13.70;99.90;;;;;;5072616;28;20264;-78
2021/10/02 06:51:39;;;;;;;3.50;2.42;;;13.80;99.90;;;;;;5072134;28;20202;-77
2021/10/02 06:54:06;;;;;;;4.72;2.47;;;13.70;99.90;;;;;;5072434;28;20207;-78
2021/10/02 06:56:33;;;;;;;2.53;1.92;;;14.00;99.90;;;;;;5071740;28;20221;-74
2021/10/02 06:59:01;;;;;;;4.55;2.30;;;14.10;99.90;;;;;;5072495;28;20260;-75
2021/10/02 07:01:28;;;;;;;4.95;2.60;;;14.30;99.90;;;;;;5071742;28;20252;-76
2021/10/02 07:03:55;;;;;;;3.75;2.50;;;14.30;99.90;;;;;;5072407;28;20214;-75
2021/10/02 07:06:23;;;;;;;2.55;2.00;;;14.40;99.90;;;;;;5072452;28;20202;-76
2021/10/02 07:08:50;;;;;;;3.30;1.75;;;14.60;99.90;;;;;;5056266;28;20210;-75
2021/10/02 07:11:17;;;;;;;3.38;2.20;;;14.60;99.90;;;;;;5069934;28;20198;-77
2021/10/02 07:13:44;;;;;;;3.05;1.73;;;14.70;99.90;;;;;;5071715;28;20271;-77
2021/10/02 07:16:11;;;;;;;2.53;1.60;;;15.00;99.90;;;;;;5072231;28;20206;-77
2021/10/02 07:18:38;;;;;;;3.35;2.40;;;15.20;99.90;;;;;;5071480;28;20234;-76
2021/10/02 07:21:05;;;;;;;5.82;2.42;;;15.30;99.90;;;;;;5072113;28;20289;-77
2021/10/02 07:23:34;;;;;;;3.78;2.45;;;15.30;99.90;;;;;;5071580;28;20629;-76
2021/10/02 07:26:01;;;;;;;3.10;2.38;;;15.40;99.90;;;;;;5072253;28;20234;-76
2021/10/02 07:28:28;;;;;;;2.85;2.60;;;15.40;99.90;;;;;;5071632;28;20206;-75
2021/10/02 07:30:56;;;;;;;4.13;2.35;;;15.50;99.90;;;;;;5058166;28;20210;-76
2021/10/02 07:33:23;;;;;;;3.20;2.83;;;15.50;99.90;;;;;;5071765;28;20670;-75
2021/10/02 07:35:50;;;;;;;4.63;2.63;;;15.50;99.90;;;;;;5071308;28;20206;-75
2021/10/02 07:38:16;;;;;;;3.83;2.45;;;15.50;99.90;;;;;;5071865;28;20226;-76
2021/10/02 07:40:46;;;;;;;10.15;2.40;;;15.60;99.90;;;;;;5071057;28;20210;-76
2021/10/02 07:43:15;;;;;;;5.47;2.95;;;15.70;99.90;;;;;;5071862;28;20210;-76
2021/10/02 07:45:45;;;;;;;7.22;3.22;;;15.90;99.90;;;;;;5070862;28;20206;-76
2021/10/02 07:48:17;;;;;;;6.53;3.92;;;15.80;99.90;;;;;;5071302;28;20213;-77
2021/10/02 07:50:44;;;;;;;3.00;2.70;;;15.80;99.90;;;;;;5071278;28;20214;-76
2021/10/02 07:53:12;;;;;;;4.10;2.50;;;15.70;99.90;;;;;;5071160;28;20235;-76
2021/10/02 07:55:40;;;;;;;4.68;2.65;;;15.70;99.90;;;;;;5070886;28;20228;-76
2021/10/02 07:58:08;;;;;;;6.28;3.83;;;15.70;99.90;;;;;;5071178;28;20235;-77
2021/10/02 08:00:36;;;;;;;5.47;2.53;;;15.70;99.90;;;;;;5070425;28;20619;-76
2021/10/02 08:03:03;;;;;;;2.88;2.00;;;15.80;99.90;;;;;;5071184;28;20210;-77
2021/10/02 08:05:30;;;;;;;7.00;2.97;;;15.80;99.90;;;;;;5071182;28;20206;-76
2021/10/02 08:07:57;;;;;;;3.67;2.53;;;15.90;99.90;;;;;;5070999;28;20202;-76
2021/10/02 08:10:27;;;;;;;7.55;2.78;;;16.20;99.90;;;;;;5071287;28;20195;-76
2021/10/02 08:12:54;;;;;;;5.75;3.22;;;16.60;99.90;;;;;;5071349;28;20634;-76
2021/10/02 08:15:23;;;;;;;9.07;2.53;;;16.80;99.90;;;;;;5070666;28;20662;-77
2021/10/02 08:17:54;;;;;;;1.95;1.75;;;17.00;99.90;;;;;;5071107;28;20230;-76
2021/10/02 08:20:21;;;;;;;2.90;2.60;;;17.20;99.90;;;;;;5071160;28;20285;-76
2021/10/02 08:22:50;;;;;;;3.35;2.33;;;17.50;99.90;;;;;;5070558;28;20666;-76
2021/10/02 08:25:18;;;;;;;3.35;2.50;;;17.70;99.90;;;;;;5070783;28;20206;-77
2021/10/02 08:27:48;;;;;;;5.72;3.53;;;17.60;99.90;;;;;;5070547;28;20218;-76
2021/10/02 08:30:16;;;;;;;4.93;1.80;;;17.60;99.90;;;;;;5070592;28;20210;-76
2021/10/02 08:32:45;;;;;;;5.90;3.85;;;17.80;99.90;;;;;;5070559;28;20210;-76
2021/10/02 08:35:12;;;;;;;5.32;2.90;;;17.90;99.90;;;;;;5070839;28;20256;-76
2021/10/02 08:37:40;;;;;;;4.90;2.72;;;17.90;99.90;;;;;;5070272;28;20638;-76
2021/10/02 08:40:10;;;;;;;4.38;2.72;;;18.20;99.90;;;;;;5070552;28;20556;-76
2021/10/02 08:42:38;;;;;;;3.80;2.35;;;18.20;99.90;;;;;;5069933;28;20220;-76
2021/10/02 08:45:06;;;;;;;4.38;2.20;;;18.40;99.90;;;;;;5070301;28;20228;-77
2021/10/02 08:47:37;;;;;;;4.00;2.00;;;18.40;99.90;;;;;;5069723;28;20206;-76
2021/10/02 08:50:06;;;;;;;2.65;2.08;;;18.90;99.90;;;;;;5070664;28;20227;-76
2021/10/02 08:52:34;;;;;;;3.22;2.22;;;19.00;99.90;;;;;;5070269;28;20210;-77
2021/10/02 08:55:04;;;;;;;3.30;2.50;;;18.90;99.90;;;;;;5070362;28;20210;-77
2021/10/02 08:57:34;;;;;;;5.50;4.85;;;18.90;99.90;;;;;;5070483;28;20291;-76
2021/10/02 09:00:03;;;;;;;6.55;4.60;;;18.70;99.90;;;;;;5070334;28;20202;-77
2021/10/02 09:02:31;;;;;;;5.85;4.38;;;18.80;99.90;;;;;;5070312;28;20206;-76
2021/10/02 09:04:58;;;;;;;4.43;2.60;;;18.90;99.90;;;;;;5070279;28;20673;-76
2021/10/02 09:07:27;;;;;;;4.10;2.95;;;19.00;99.90;;;;;;5070141;28;20696;-76
2021/10/02 09:09:54;;;;;;;6.85;3.75;;;19.30;99.90;;;;;;5070670;28;20260;-77
2021/10/02 09:12:22;;;;;;;3.33;2.53;;;19.40;99.90;;;;;;5070827;28;20199;-76
2021/10/02 09:14:52;;;;;;;2.72;1.90;;;19.50;99.90;;;;;;5070108;28;20207;-76
2021/10/02 09:17:20;;;;;;;2.78;2.20;;;19.20;99.90;;;;;;5070642;28;20231;-76
2021/10/02 09:19:47;;;;;;;6.03;3.33;;;19.10;99.90;;;;;;5069985;28;20271;-76
2021/10/02 09:22:16;;;;;;;4.40;2.35;;;19.10;99.90;;;;;;5070229;28;20270;-77
2021/10/02 09:24:46;;;;;;;3.42;2.00;;;19.40;99.90;;;;;;5070135;28;20245;-76
2021/10/02 09:27:16;;;;;;;3.58;2.92;;;19.70;99.90;;;;;;5070009;28;20629;-76
2021/10/02 09:29:45;;;;;;;2.63;2.05;;;20.20;99.90;;;;;;5069607;28;20747;-76
2021/10/02 09:32:14;;;;;;;3.47;2.47;;;20.20;99.90;;;;;;5070216;28;20206;-76
2021/10/02 09:34:47;;;;;;;2.53;2.15;;;20.20;99.90;;;;;;5069806;28;20203;-76
2021/10/02 09:37:23;;;;;;;4.65;3.30;;;20.20;99.90;;;;;;5069746;28;20544;-76
2021/10/02 09:39:55;;;;;;;7.15;2.80;;;20.20;99.90;;;;;;5070185;28;20205;-77
2021/10/02 09:42:29;;;;;;;4.40;3.25;;;20.50;99.90;;;;;;5069932;28;20758;-76
2021/10/02 09:45:06;;;;;;;1.48;1.35;;;20.90;99.90;;;;;;5070168;28;20198;-76
2021/10/02 09:47:34;;;;;;;3.47;2.85;;;21.10;99.90;;;;;;5069725;28;20209;-77
2021/10/02 09:50:06;;;;;;;4.13;2.28;;;21.30;99.90;;;;;;5069696;28;20206;-77
2021/10/02 09:52:36;;;;;;;3.50;1.83;;;21.50;99.90;;;;;;5069638;28;20206;-77
2021/10/02 09:55:18;;;;;;;2.10;1.83;;;22.10;99.90;;;;;;5069846;28;20206;-77
2021/10/02 09:57:47;;;;;;;1.95;1.33;;;22.30;99.90;;;;;;5071574;28;20329;-76
2021/10/02 10:00:17;;;;;;;2.25;1.60;;;21.90;99.90;;;;;;5073239;28;20746;-79
2021/10/02 10:02:44;;;;;;;2.45;2.10;;;22.20;99.90;;;;;;5073501;28;20287;-79
2021/10/02 10:05:13;;;;;;;1.50;1.40;;;22.70;99.90;;;;;;5073603;28;20203;-77
2021/10/02 10:07:41;;;;;;;3.05;2.10;;;22.40;99.90;;;;;;5072934;28;20652;-77
2021/10/02 10:10:14;;;;;;;2.15;1.92;;;22.00;99.90;;;;;;5073226;28;20267;-77
2021/10/02 10:12:43;;;;;;;2.25;1.90;;;22.30;99.90;;;;;;5073222;28;20267;-77
2021/10/02 10:15:39;;;;;;;2.10;1.65;;;22.70;99.90;;;;;;5073030;28;20633;-77
2021/10/02 10:18:07;;;;;;;2.70;1.88;;;23.50;99.90;;;;;;5073012;28;20225;-77
2021/10/02 10:20:40;;;;;;;2.72;2.30;;;23.10;99.90;;;;;;5072556;28;20206;-78
2021/10/02 10:23:09;;;;;;;4.40;1.83;;;23.00;99.90;;;;;;5073383;28;20210;-78
2021/10/02 10:25:49;;;;;;;6.18;1.92;;;22.70;99.90;;;;;;5072542;28;20256;-78
2021/10/02 10:28:20;;;;;;;3.60;1.80;;;22.70;99.90;;;;;;5073228;28;20209;-77
2021/10/02 10:30:48;;;;;;;2.80;1.73;;;22.70;99.90;;;;;;5072417;28;20762;-76
2021/10/02 10:33:16;;;;;;;2.83;1.38;;;23.10;99.90;;;;;;5073376;28;20253;-77
2021/10/02 10:35:45;;;;;;;2.50;1.75;;;23.60;99.90;;;;;;5072464;28;20267;-77
2021/10/02 10:38:16;;;;;;;3.15;1.85;;;23.50;99.90;;;;;;5073121;28;20225;-78
2021/10/02 10:40:45;;;;;;;2.47;1.33;;;23.70;99.90;;;;;;5072261;28;20623;-77
2021/10/02 10:43:12;;;;;;;1.73;1.52;;;23.70;99.90;;;;;;5072816;28;20206;-76
2021/10/02 10:45:39;;;;;;;2.83;1.73;;;23.60;99.90;;;;;;5072442;28;20259;-77
2021/10/02 10:48:08;;;;;;;2.30;1.60;;;23.70;99.90;;;;;;5072564;28;20259;-81
2021/10/02 10:50:37;;;;;;;2.95;1.65;;;23.50;99.90;;;;;;5072469;28;20260;-77
2021/10/02 10:53:05;;;;;;;2.17;1.70;;;23.10;99.90;;;;;;5072727;28;20206;-76
2021/10/02 10:55:33;;;;;;;2.58;1.05;;;23.10;99.90;;;;;;5071943;28;20248;-77
2021/10/02 10:58:02;;;;;;;3.22;1.65;;;23.40;99.90;;;;;;5072294;28;20271;-77
2021/10/02 11:00:42;;;;;;;2.92;1.17;;;23.30;99.90;;;;;;5072512;28;20198;-77
2021/10/02 11:03:11;;;;;;;1.50;1.20;;;23.40;99.90;;;;;;5072526;28;20212;-77
2021/10/02 11:05:52;;;;;;;2.90;1.40;;;23.50;99.90;;;;;;5072285;28;20580;-78
2021/10/02 11:08:24;;;;;;;2.35;1.55;;;23.70;99.90;;;;;;5071546;28;20201;-77
2021/10/02 11:10:53;;;;;;;2.83;1.50;;;23.70;99.90;;;;;;5072131;28;20638;-79
2021/10/02 11:13:56;;;;;;;4.63;1.70;;;23.80;99.90;;;;;;5072250;28;20252;-77
2021/10/02 11:16:38;;;;;;;2.30;1.35;;;23.80;99.90;;;;;;5072478;28;20206;-77
2021/10/02 11:19:30;;;;;;;1.45;1.35;;;23.90;99.90;;;;;;5058928;28;20238;-77
2021/10/02 11:22:32;;;;;;;2.83;2.00;;;23.80;99.90;;;;;;5066233;28;20205;-78
2021/10/02 11:25:00;;;;;;;5.25;1.40;;;24.00;99.90;;;;;;5013322;28;20219;-77
2021/10/02 11:27:27;;;;;;;1.70;1.27;;;24.30;99.90;;;;;;5070965;28;20614;-76
2021/10/02 11:30:11;;;;;;;5.18;2.10;;;24.30;99.90;;;;;;5072200;28;20213;-77
2021/10/02 11:32:38;;;;;;;2.78;1.40;;;24.30;99.90;;;;;;5071652;28;20247;-76
2021/10/02 11:35:23;;;;;;;2.83;1.50;;;24.60;99.90;;;;;;5071847;28;20214;-77
2021/10/02 11:37:53;;;;;;;2.95;1.40;;;24.70;99.90;;;;;;5058657;28;20206;-78
2021/10/02 11:40:48;;;;;;;2.00;1.33;;;24.50;99.90;;;;;;5072254;28;20210;-77
2021/10/02 11:43:27;;;;;;;3.58;1.30;;;24.70;99.90;;;;;;5037601;28;20256;-85
2021/10/02 11:46:07;;;;;;;5.18;1.17;;;24.70;99.90;;;;;;5071597;28;20202;-77
2021/10/02 11:48:39;;;;;;;2.78;1.45;;;24.70;99.90;;;;;;5070867;28;20214;-78
2021/10/02 11:51:33;;;;;;;3.80;1.25;;;24.50;99.90;;;;;;5071549;28;20239;-76
2021/10/02 11:54:13;;;;;;;4.22;1.35;;;24.20;99.90;;;;;;5071394;28;20210;-77
2021/10/02 11:56:41;;;;;;;2.08;1.30;;;24.30;99.90;;;;;;5071035;28;20256;-79
2021/10/02 11:59:08;;;;;;;4.68;1.42;;;24.40;99.90;;;;;;5071613;28;20237;-79
2021/10/02 12:01:39;;;;;;;3.15;1.58;;;24.50;99.90;;;;;;5070856;28;20210;-78
2021/10/02 12:04:08;;;;;;;2.63;1.60;;;24.80;99.90;;;;;;5071237;28;20628;-76
2021/10/02 12:06:38;;;;;;;4.82;3.80;;;25.00;99.90;;;;;;5070287;28;20210;-77
2021/10/02 12:09:06;;;;;;;8.98;4.43;;;24.70;99.90;;;;;;5071154;28;20210;-76
2021/10/02 12:11:41;;;;;;;4.35;3.95;;;24.80;99.90;;;;;;5070815;28;20268;-78
2021/10/02 12:14:09;;;;;;;4.70;2.90;;;24.90;99.90;;;;;;5070956;28;20255;-78
2021/10/02 12:16:37;;;;;;;5.78;4.22;;;24.90;99.90;;;;;;5070686;28;20210;-77
2021/10/02 12:19:09;;;;;;;4.93;3.78;;;25.10;99.90;;;;;;5070980;28;20321;-80
2021/10/02 12:21:44;;;;;;;1.52;1.42;;;25.00;99.90;;;;;;5069625;28;20285;-82
2021/10/02 12:24:18;;;;;;;4.72;2.25;;;24.60;99.90;;;;;;5057764;28;20198;-78
2021/10/02 12:26:56;;;;;;;5.28;1.77;;;24.50;99.90;;;;;;5070706;28;20582;-78
2021/10/02 12:29:26;;;;;;;3.13;1.75;;;24.50;99.90;;;;;;5058690;28;20198;-83
2021/10/02 12:31:57;;;;;;;3.05;1.40;;;24.80;99.90;;;;;;5071544;28;20665;-79
2021/10/02 12:34:26;;;;;;;1.98;1.50;;;24.90;99.90;;;;;;5071487;28;20198;-78
2021/10/02 12:36:57;;;;;;;1.55;1.45;;;25.00;99.90;;;;;;5070827;28;20735;-83
2021/10/02 12:39:44;;;;;;;5.10;1.73;;;25.20;99.90;;;;;;5070970;28;20229;-76
2021/10/02 12:42:13;;;;;;;3.03;1.70;;;25.20;99.90;;;;;;5070493;28;20221;-78
2021/10/02 12:44:45;;;;;;;3.03;1.77;;;25.00;99.90;;;;;;5070279;28;20206;-78
2021/10/02 12:47:13;;;;;;;2.75;1.45;;;25.30;99.90;;;;;;5070560;28;20198;-80
2021/10/02 12:49:43;;;;;;;3.17;1.55;;;25.40;99.90;;;;;;5066573;28;20206;-80
2021/10/02 12:52:11;;;;;;;4.53;2.72;;;25.50;99.90;;;;;;5070570;28;20669;-79
2021/10/02 12:54:42;;;;;;;2.97;2.08;;;25.20;99.90;;;;;;5069878;28;20206;-79
2021/10/02 12:57:13;;;;;;;2.00;1.80;;;25.30;99.90;;;;;;5070579;28;20206;-78
2021/10/02 12:59:57;;;;;;;5.55;2.42;;;25.00;99.90;;;;;;5069723;28;20686;-79
2021/10/02 13:02:25;;;;;;;3.53;2.03;;;25.00;99.90;;;;;;5070834;28;20210;-78
2021/10/02 13:04:52;;;;;;;4.07;2.10;;;25.10;99.90;;;;;;5070206;28;20202;-78
2021/10/02 13:07:31;;;;;;;2.00;1.80;;;25.20;99.90;;;;;;5070624;28;20627;-77
2021/10/02 13:10:12;;;;;;;3.20;1.55;;;25.20;99.90;;;;;;5070162;28;20584;-78
2021/10/02 13:12:41;;;;;;;4.82;3.25;;;25.10;99.90;;;;;;5070155;28;20259;-76
2021/10/02 13:15:21;;;;;;;4.70;1.80;;;25.20;99.90;;;;;;5069936;28;20209;-78
2021/10/02 13:17:58;;;;;;;3.40;1.95;;;25.30;99.90;;;;;;5069892;28;20600;-78
2021/10/02 13:20:25;;;;;;;1.67;1.58;;;25.10;99.90;;;;;;5069944;28;20233;-76
2021/10/02 13:22:52;;;;;;;4.18;1.90;;;25.10;99.90;;;;;;5070764;28;20206;-78
2021/10/02 13:25:23;;;;;;;4.63;1.83;;;25.30;99.90;;;;;;5070288;28;20213;-78
2021/10/02 13:27:53;;;;;;;2.08;1.63;;;25.30;99.90;;;;;;5070078;28;20206;-79
2021/10/02 13:30:22;;;;;;;2.55;1.58;;;25.20;99.90;;;;;;5070542;28;20214;-78
2021/10/02 13:33:05;;;;;;;2.58;1.98;;;25.00;99.90;;;;;;5072527;28;20263;-80
2021/10/02 13:35:36;;;;;;;4.03;2.10;;;25.20;99.90;;;;;;5073735;28;20206;-79
2021/10/02 13:38:03;;;;;;;3.13;2.08;;;25.10;99.90;;;;;;5074136;28;20210;-81
2021/10/02 13:40:32;;;;;;;3.40;1.13;;;25.10;99.90;;;;;;5073368;28;20656;-77
2021/10/02 13:43:01;;;;;;;4.30;2.22;;;25.10;99.90;;;;;;5074201;28;20206;-78
2021/10/02 13:45:31;;;;;;;2.75;1.45;;;25.20;99.90;;;;;;5073758;28;20205;-76
2021/10/02 13:48:01;;;;;;;1.90;1.65;;;25.00;99.90;;;;;;5060091;28;20682;-83